createdAt,value
2022-08-11T00:02:00.533Z,2.20
2022-08-11T00:04:34.619Z,1.98
2022-08-11T00:07:03.850Z,1.73
2022-08-11T00:09:39.575Z,2.08
2022-08-11T00:12:15.081Z,1.98
2022-08-11T00:14:42.862Z,2.03
2022-08-11T00:17:12.566Z,2.28
2022-08-11T00:20:13.866Z,2.03
2022-08-11T00:22:34.223Z,1.90
2022-08-11T00:25:19.155Z,2.08
2022-08-11T00:27:47.646Z,1.67
2022-08-11T00:30:16.391Z,1.42
2022-08-11T00:32:53.243Z,2.20
2022-08-11T00:35:55.939Z,1.77
2022-08-11T00:38:14.332Z,1.75
2022-08-11T00:40:53.257Z,2.03
2022-08-11T00:43:49.813Z,2.00
2022-08-11T00:46:26.111Z,1.88
2022-08-11T00:49:12.143Z,2.38
2022-08-11T00:52:04.760Z,1.70
2022-08-11T00:54:57.956Z,1.98
2022-08-11T00:57:39.672Z,2.25
2022-08-11T01:00:14.166Z,2.13
2022-08-11T01:03:07.802Z,2.08
2022-08-11T01:05:56.812Z,1.88
2022-08-11T01:08:38.777Z,1.92
2022-08-11T01:11:25.351Z,1.92
2022-08-11T01:14:16.435Z,1.70
2022-08-11T01:17:25.092Z,2.13
2022-08-11T01:20:47.107Z,1.70
2022-08-11T01:23:25.897Z,1.98
2022-08-11T01:25:57.018Z,1.30
2022-08-11T01:28:57.385Z,1.55
2022-08-11T01:31:45.396Z,2.05
2022-08-11T01:34:27.431Z,1.90
2022-08-11T01:39:41.901Z,2.20
2022-08-11T01:42:52.243Z,2.13
2022-08-11T01:45:21.320Z,1.63
2022-08-11T01:48:08.043Z,2.13
2022-08-11T01:50:54.014Z,2.17
2022-08-11T01:53:42.060Z,2.17
2022-08-11T01:56:39.729Z,2.20
2022-08-11T01:59:34.358Z,1.95
2022-08-11T02:02:42.449Z,2.30
2022-08-11T02:05:33.578Z,1.98
2022-08-11T02:08:21.654Z,2.47
2022-08-11T02:11:28.313Z,2.55
2022-08-11T02:14:10.846Z,2.40
2022-08-11T02:16:55.735Z,2.22
2022-08-11T02:20:13.318Z,2.35
2022-08-11T02:22:58.699Z,2.40
2022-08-11T02:25:28.521Z,2.20
2022-08-11T02:28:07.734Z,2.58
2022-08-11T02:30:42.820Z,2.38
2022-08-11T02:33:24.217Z,2.80
2022-08-11T02:36:08.967Z,2.05
2022-08-11T02:39:00.913Z,2.42
2022-08-11T02:42:00.126Z,2.38
2022-08-11T02:44:36.159Z,2.33
2022-08-11T02:47:31.929Z,2.58
2022-08-11T02:50:23.545Z,2.15
2022-08-11T02:53:12.929Z,2.30
2022-08-11T02:55:57.296Z,2.30
2022-08-11T02:59:18.276Z,2.00
2022-08-11T03:04:51.725Z,2.15
2022-08-11T03:08:06.426Z,2.67
2022-08-11T03:11:30.735Z,2.88
2022-08-11T03:14:28.832Z,2.83
2022-08-11T03:17:10.902Z,2.33
2022-08-11T03:22:38.802Z,2.92
2022-08-11T03:25:31.889Z,2.72
2022-08-11T03:28:09.967Z,3.33
2022-08-11T03:30:56.893Z,3.05
2022-08-11T03:33:52.493Z,3.15
2022-08-11T03:36:28.339Z,2.47
2022-08-11T03:39:10.769Z,3.25
2022-08-11T03:42:03.223Z,2.53
2022-08-11T03:44:56.282Z,3.17
2022-08-11T03:47:36.634Z,3.05
2022-08-11T03:50:34.825Z,2.63
2022-08-11T03:53:28.185Z,3.33
2022-08-11T03:55:57.754Z,3.15
2022-08-11T03:58:41.877Z,3.42
2022-08-11T04:01:43.120Z,3.05
2022-08-11T04:04:22.130Z,3.28
2022-08-11T04:07:03.309Z,4.00
2022-08-11T04:10:07.764Z,3.47
2022-08-11T04:13:12.125Z,3.72
2022-08-11T04:16:12.537Z,3.58
2022-08-11T04:19:13.780Z,4.05
2022-08-11T04:22:11.184Z,3.58
2022-08-11T04:24:48.364Z,3.28
2022-08-11T04:28:06.447Z,3.28
2022-08-11T04:30:42.132Z,3.75
2022-08-11T04:33:56.085Z,3.17
2022-08-11T04:36:59.613Z,3.22
2022-08-11T04:42:59.529Z,3.47
2022-08-11T04:45:35.644Z,3.63
2022-08-11T04:48:36.289Z,3.53
2022-08-11T04:51:56.341Z,3.50
2022-08-11T04:55:19.457Z,3.90
2022-08-11T04:58:31.500Z,3.75
2022-08-11T05:01:39.337Z,3.20
2022-08-11T05:04:34.011Z,3.60
2022-08-11T05:07:28.097Z,3.28
2022-08-11T05:10:19.912Z,2.97
2022-08-11T05:12:53.454Z,3.30
2022-08-11T05:15:52.052Z,3.97
2022-08-11T05:18:43.402Z,3.35
2022-08-11T05:21:44.227Z,3.30
2022-08-11T05:24:39.752Z,3.77
2022-08-11T05:27:28.097Z,2.88
2022-08-11T05:30:19.665Z,3.25
2022-08-11T05:33:14.760Z,3.28
2022-08-11T05:36:01.896Z,3.10
2022-08-11T05:38:53.160Z,3.15
2022-08-11T05:41:45.044Z,3.80
2022-08-11T05:44:37.966Z,3.38
2022-08-11T05:47:24.212Z,2.72
2022-08-11T05:50:13.602Z,3.30
2022-08-11T05:53:09.298Z,2.50
2022-08-11T05:56:02.962Z,3.25
2022-08-11T05:58:42.980Z,2.83
2022-08-11T06:01:13.111Z,3.03
2022-08-11T06:04:03.407Z,3.20
2022-08-11T06:06:30.995Z,3.28
2022-08-11T06:08:59.608Z,2.45
2022-08-11T06:11:43.719Z,3.13
2022-08-11T06:14:13.411Z,2.65
2022-08-11T06:16:42.861Z,2.75
2022-08-11T06:19:10.507Z,2.42
2022-08-11T06:21:38.328Z,3.42
2022-08-11T06:24:12.520Z,3.15
2022-08-11T06:27:01.556Z,3.20
2022-08-11T06:29:37.794Z,2.38
2022-08-11T06:32:16.238Z,2.97
2022-08-11T06:35:12.128Z,2.70
2022-08-11T06:38:03.840Z,3.17
2022-08-11T06:40:37.546Z,2.90
2022-08-11T06:43:25.932Z,3.08
2022-08-11T06:46:06.149Z,3.00
2022-08-11T06:48:34.059Z,2.58
2022-08-11T06:51:14.166Z,2.55
2022-08-11T06:54:04.954Z,2.30
2022-08-11T06:57:28.308Z,2.72
2022-08-11T07:00:06.451Z,2.53
2022-08-11T07:03:10.077Z,2.30
2022-08-11T07:05:45.038Z,2.78
2022-08-11T07:08:51.463Z,2.90
2022-08-11T07:12:07.304Z,2.13
2022-08-11T07:14:58.909Z,2.45
2022-08-11T07:17:30.543Z,2.30
2022-08-11T07:20:21.196Z,2.63
2022-08-11T07:23:19.797Z,2.70
2022-08-11T07:26:10.300Z,1.85
2022-08-11T07:28:58.031Z,2.75
2022-08-11T07:31:51.325Z,2.42
2022-08-11T07:34:25.709Z,3.10
2022-08-11T07:37:04.145Z,2.00
2022-08-11T07:39:36.060Z,2.33
2022-08-11T07:42:08.939Z,2.85
2022-08-11T07:44:59.262Z,2.30
2022-08-11T07:47:46.043Z,2.65
2022-08-11T07:50:32.927Z,3.00
2022-08-11T07:53:01.533Z,1.98
2022-08-11T07:55:50.764Z,2.60
2022-08-11T07:58:45.429Z,2.65
2022-08-11T08:01:43.975Z,2.30
2022-08-11T08:04:35.608Z,1.85
2022-08-11T08:07:23.391Z,2.55
2022-08-11T08:10:09.685Z,1.80
2022-08-11T08:13:01.088Z,2.03
2022-08-11T08:15:47.407Z,1.73
2022-08-11T08:18:26.617Z,1.98
2022-08-11T08:20:56.761Z,1.77
2022-08-11T08:23:35.968Z,1.80
2022-08-11T08:26:26.023Z,2.35
2022-08-11T08:28:55.202Z,1.95
2022-08-11T08:31:22.681Z,2.60
2022-08-11T08:33:49.801Z,2.10
2022-08-11T08:36:17.080Z,2.38
2022-08-11T08:38:54.113Z,2.10
2022-08-11T08:41:25.339Z,2.17
2022-08-11T08:43:56.401Z,2.85
2022-08-11T08:46:30.484Z,2.38
2022-08-11T08:49:01.943Z,2.08
2022-08-11T08:52:00.894Z,2.08
2022-08-11T08:54:30.307Z,2.22
2022-08-11T08:56:58.015Z,2.15
2022-08-11T08:59:26.906Z,2.35
2022-08-11T09:04:48.211Z,2.20
2022-08-11T09:07:18.289Z,2.05
2022-08-11T09:09:48.792Z,2.40
2022-08-11T09:12:17.505Z,1.90
2022-08-11T09:15:06.316Z,1.92
2022-08-11T09:17:40.958Z,2.22
2022-08-11T09:20:23.904Z,2.38
2022-08-11T09:24:07.945Z,2.33
2022-08-11T09:26:20.898Z,1.90
2022-08-11T09:28:50.106Z,2.53
2022-08-11T09:31:17.917Z,1.85
2022-08-11T09:33:51.313Z,2.00
2022-08-11T09:36:38.698Z,2.03
2022-08-11T09:39:25.641Z,1.75
2022-08-11T09:42:01.016Z,1.73
2022-08-11T09:44:50.502Z,1.52
2022-08-11T09:47:21.444Z,1.60
2022-08-11T09:49:49.081Z,2.20
2022-08-11T09:52:18.551Z,1.80
2022-08-11T09:54:48.743Z,1.98
2022-08-11T09:57:38.498Z,1.90
2022-08-11T10:00:13.404Z,2.08
2022-08-11T10:02:50.408Z,2.35
2022-08-11T10:05:39.752Z,1.80
2022-08-11T10:08:10.391Z,1.80
2022-08-11T10:10:39.176Z,2.00
2022-08-11T10:14:31.429Z,1.27
2022-08-11T10:16:15.214Z,1.40
2022-08-11T10:18:52.859Z,1.55
2022-08-11T10:21:34.578Z,1.58
2022-08-11T10:24:21.341Z,1.60
2022-08-11T10:26:55.796Z,1.60
2022-08-11T10:29:54.901Z,1.35
2022-08-11T10:32:57.401Z,1.48
2022-08-11T10:35:27.574Z,1.40
2022-08-11T10:38:07.949Z,1.70
2022-08-11T10:40:39.248Z,1.75
2022-08-11T10:43:13.411Z,1.98
2022-08-11T10:46:03.397Z,1.23
2022-08-11T10:48:35.014Z,1.70
2022-08-11T10:51:14.269Z,2.00
2022-08-11T10:54:11.457Z,1.88
2022-08-11T10:56:59.050Z,1.50
2022-08-11T10:59:28.154Z,1.42
2022-08-11T11:01:55.675Z,1.45
2022-08-11T11:04:37.721Z,1.48
2022-08-11T11:07:24.993Z,1.35
2022-08-11T11:09:57.474Z,1.15
2022-08-11T11:12:55.324Z,1.13
2022-08-11T11:15:43.390Z,1.15
2022-08-11T11:18:23.195Z,1.30
2022-08-11T11:21:06.033Z,1.40
2022-08-11T11:23:53.538Z,1.13
2022-08-11T11:26:27.629Z,1.33
2022-08-11T11:29:32.373Z,1.08
2022-08-11T11:32:11.151Z,1.05
2022-08-11T11:35:02.555Z,1.50
2022-08-11T11:40:12.988Z,1.00
2022-08-11T11:42:41.703Z,1.30
2022-08-11T11:45:23.979Z,1.40
2022-08-11T11:47:54.023Z,1.50
2022-08-11T11:50:31.765Z,1.30
2022-08-11T11:53:02.037Z,1.52
2022-08-11T11:55:30.154Z,1.23
2022-08-11T11:58:18.858Z,1.33
2022-08-11T12:01:04.752Z,1.33
2022-08-11T12:03:33.353Z,1.10
2022-08-11T12:06:00.766Z,1.40
2022-08-11T12:08:28.469Z,1.33
2022-08-11T12:11:22.586Z,1.30
2022-08-11T12:13:52.666Z,1.60
2022-08-11T12:16:34.770Z,0.90
2022-08-11T12:19:15.235Z,1.02
2022-08-11T12:22:01.389Z,1.60
2022-08-11T12:24:49.247Z,1.30
2022-08-11T12:27:24.954Z,1.40
2022-08-11T12:30:01.231Z,1.30
2022-08-11T12:32:31.692Z,1.10
2022-08-11T12:34:59.293Z,1.20
2022-08-11T12:37:43.665Z,1.30
2022-08-11T12:40:43.757Z,1.08
2022-08-11T12:43:42.994Z,1.00
2022-08-11T12:46:33.027Z,1.45
2022-08-11T12:49:25.662Z,1.30
2022-08-11T12:52:14.724Z,1.40
2022-08-11T12:54:57.569Z,1.60
2022-08-11T12:57:56.944Z,0.88
2022-08-11T13:00:44.449Z,0.95
2022-08-11T13:03:32.458Z,1.45
2022-08-11T13:06:02.816Z,1.15
2022-08-11T13:08:33.807Z,1.02
2022-08-11T13:11:20.370Z,1.42
2022-08-11T13:13:53.470Z,1.10
2022-08-11T13:16:31.471Z,0.95
2022-08-11T13:19:01.340Z,0.90
2022-08-11T13:21:29.142Z,1.20
2022-08-11T13:24:01.388Z,1.30
2022-08-11T13:26:47.829Z,1.10
2022-08-11T13:29:25.357Z,1.17
2022-08-11T13:31:56.206Z,1.08
2022-08-11T13:34:26.787Z,0.93
2022-08-11T13:36:55.818Z,1.08
2022-08-11T13:39:26.020Z,0.90
2022-08-11T13:41:56.472Z,1.15
2022-08-11T13:44:29.960Z,1.25
2022-08-11T13:47:04.092Z,1.27
2022-08-11T13:49:33.227Z,1.20
2022-08-11T13:52:01.136Z,0.90
2022-08-11T13:54:32.037Z,1.20
2022-08-11T13:57:09.133Z,1.10
2022-08-11T13:59:51.806Z,1.13
2022-08-11T14:02:29.539Z,1.00
2022-08-11T14:05:07.161Z,0.98
2022-08-11T14:07:51.606Z,1.00
2022-08-11T14:10:26.935Z,0.88
2022-08-11T14:13:42.256Z,1.10
2022-08-11T14:16:20.433Z,1.15
2022-08-11T14:18:49.035Z,1.52
2022-08-11T14:21:36.009Z,1.20
2022-08-11T14:24:04.635Z,0.82
2022-08-11T14:26:38.729Z,1.15
2022-08-11T14:29:15.223Z,1.33
2022-08-11T14:31:56.412Z,1.02
2022-08-11T14:37:00.601Z,1.08
2022-08-11T14:39:37.658Z,1.05
2022-08-11T14:42:27.433Z,1.10
2022-08-11T14:45:23.014Z,1.15
2022-08-11T14:47:54.355Z,1.13
2022-08-11T14:50:26.686Z,1.27
2022-08-11T14:52:59.669Z,1.50
2022-08-11T14:55:47.678Z,1.05
2022-08-11T14:58:23.490Z,1.20
2022-08-11T15:00:54.610Z,1.20
2022-08-11T15:06:02.264Z,1.23
2022-08-11T15:08:52.699Z,0.90
2022-08-11T15:11:40.807Z,1.27
2022-08-11T15:14:09.882Z,1.45
2022-08-11T15:17:04.258Z,1.00
2022-08-11T15:19:40.746Z,0.90
2022-08-11T15:22:28.393Z,1.20
2022-08-11T15:24:57.573Z,1.33
2022-08-11T15:27:44.372Z,1.00
2022-08-11T15:30:33.915Z,0.88
2022-08-11T15:33:27.667Z,0.88
2022-08-11T15:36:14.497Z,0.82
2022-08-11T15:38:55.411Z,1.13
2022-08-11T15:41:46.520Z,1.10
2022-08-11T15:45:02.785Z,1.33
2022-08-11T15:47:39.016Z,1.08
2022-08-11T15:50:15.227Z,0.80
2022-08-11T15:52:56.183Z,1.30
2022-08-11T15:55:24.512Z,0.93
2022-08-11T15:58:12.224Z,0.70
2022-08-11T16:01:04.094Z,0.90
2022-08-11T16:04:13.272Z,0.90
2022-08-11T16:06:44.013Z,1.20
2022-08-11T16:09:19.328Z,1.23
2022-08-11T16:11:47.538Z,1.17
2022-08-11T16:14:35.980Z,1.27
2022-08-11T16:17:04.483Z,0.93
2022-08-11T16:19:36.561Z,0.98
2022-08-11T16:22:07.868Z,1.30
2022-08-11T16:27:27.480Z,1.05
2022-08-11T16:29:56.596Z,1.05
2022-08-11T16:32:25.798Z,1.58
2022-08-11T16:35:18.684Z,1.38
2022-08-11T16:38:05.559Z,1.20
2022-08-11T16:40:33.697Z,0.80
2022-08-11T16:43:21.807Z,1.35
2022-08-11T16:46:07.801Z,0.90
2022-08-11T16:48:38.807Z,1.13
2022-08-11T16:54:03.359Z,1.80
2022-08-11T16:56:25.070Z,2.28
2022-08-11T16:59:13.350Z,2.40
2022-08-11T17:01:46.349Z,2.40
2022-08-11T17:04:40.132Z,1.95
2022-08-11T17:07:40.536Z,2.67
2022-08-11T17:11:03.664Z,1.67
2022-08-11T17:13:57.479Z,2.05
2022-08-11T17:16:28.029Z,1.80
2022-08-11T17:19:02.915Z,1.00
2022-08-11T17:21:35.688Z,1.13
2022-08-11T17:24:09.492Z,0.80
2022-08-11T17:26:55.693Z,1.02
2022-08-11T17:29:54.679Z,0.88
2022-08-11T17:33:00.465Z,0.80
2022-08-11T17:35:38.740Z,0.73
2022-08-11T17:38:09.958Z,0.80
2022-08-11T17:41:02.247Z,0.88
2022-08-11T17:43:48.363Z,0.77
2022-08-11T17:46:38.084Z,1.00
2022-08-11T17:49:08.154Z,0.85
2022-08-11T17:51:55.337Z,0.85
2022-08-11T17:54:43.017Z,1.23
2022-08-11T17:57:30.429Z,0.98
2022-08-11T17:59:59.360Z,0.80
2022-08-11T18:02:49.338Z,1.10
2022-08-11T18:05:21.235Z,1.02
2022-08-11T18:08:11.584Z,1.00
2022-08-11T18:10:58.618Z,0.90
2022-08-11T18:13:47.557Z,0.88
2022-08-11T18:16:33.278Z,0.85
2022-08-11T18:19:19.484Z,1.15
2022-08-11T18:22:14.395Z,0.90
2022-08-11T18:25:09.092Z,0.90
2022-08-11T18:27:56.768Z,1.00
2022-08-11T18:30:43.272Z,1.00
2022-08-11T18:36:42.331Z,1.15
2022-08-11T18:39:31.112Z,1.08
2022-08-11T18:42:29.046Z,1.10
2022-08-11T18:45:20.310Z,1.13
2022-08-11T18:48:09.314Z,1.30
2022-08-11T18:51:28.065Z,0.82
2022-08-11T18:54:09.179Z,0.98
2022-08-11T18:56:55.407Z,1.25
2022-08-11T18:59:44.856Z,1.15
2022-08-11T19:02:31.814Z,1.00
2022-08-11T19:05:20.496Z,0.90
2022-08-11T19:08:28.698Z,0.95
2022-08-11T19:11:15.845Z,1.05
2022-08-11T19:14:07.133Z,1.07
2022-08-11T19:16:54.353Z,0.95
2022-08-11T19:19:43.209Z,0.93
2022-08-11T19:22:32.500Z,0.82
2022-08-11T19:25:23.287Z,0.90
2022-08-11T19:28:12.742Z,1.00
2022-08-11T19:30:59.820Z,0.80
2022-08-11T19:33:59.931Z,1.60
2022-08-11T19:36:50.272Z,1.05
2022-08-11T19:39:38.042Z,1.23
2022-08-11T19:42:28.231Z,0.95
2022-08-11T19:45:15.134Z,0.90
2022-08-11T19:48:30.115Z,0.90
2022-08-11T19:51:10.160Z,1.25
2022-08-11T19:53:56.234Z,1.00
2022-08-11T19:56:42.233Z,0.80
2022-08-11T19:59:28.656Z,0.90
2022-08-11T20:02:14.801Z,0.85
2022-08-11T20:05:00.910Z,1.23
2022-08-11T20:07:47.721Z,1.10
2022-08-11T20:10:37.446Z,0.88
2022-08-11T20:13:26.700Z,1.02
2022-08-11T20:16:14.037Z,1.17
2022-08-11T20:19:01.635Z,1.30
2022-08-11T20:21:47.976Z,1.08
2022-08-11T20:24:36.119Z,1.13
2022-08-11T20:27:25.406Z,1.40
2022-08-11T20:30:14.483Z,1.95
2022-08-11T20:33:00.978Z,1.20
2022-08-11T20:35:47.679Z,2.53
2022-08-11T20:38:34.786Z,2.47
2022-08-11T20:41:22.454Z,2.55
2022-08-11T20:44:09.761Z,1.38
2022-08-11T20:46:57.768Z,1.30
2022-08-11T20:49:53.642Z,1.08
2022-08-11T20:52:48.120Z,1.17
2022-08-11T20:55:51.445Z,1.02
2022-08-11T21:04:33.751Z,1.40
2022-08-11T21:07:29.028Z,1.60
2022-08-11T21:10:23.194Z,1.02
2022-08-11T21:13:25.573Z,1.40
2022-08-11T21:16:25.201Z,1.33
2022-08-11T21:19:59.548Z,1.35
2022-08-11T21:22:37.352Z,1.45
2022-08-11T21:25:25.792Z,1.38
2022-08-11T21:28:11.931Z,1.17
2022-08-11T21:30:58.597Z,1.65
2022-08-11T21:33:46.800Z,1.48
2022-08-11T21:36:33.671Z,1.48
2022-08-11T21:39:24.989Z,1.50
2022-08-11T21:42:13.058Z,1.52
2022-08-11T21:45:01.033Z,1.33
2022-08-11T21:47:48.512Z,1.55
2022-08-11T21:50:34.128Z,1.55
2022-08-11T21:53:20.252Z,1.20
2022-08-11T21:56:06.548Z,1.27
2022-08-11T21:58:52.755Z,1.15
2022-08-11T22:01:39.763Z,1.05
2022-08-11T22:04:26.240Z,1.38
2022-08-11T22:07:12.497Z,1.40
2022-08-11T22:09:58.014Z,1.08
2022-08-11T22:12:45.230Z,1.48
2022-08-11T22:15:30.830Z,1.70
2022-08-11T22:18:16.390Z,1.50
2022-08-11T22:21:03.450Z,1.33
2022-08-11T22:23:54.775Z,1.25
2022-08-11T22:26:41.805Z,1.30
2022-08-11T22:29:50.203Z,1.48
2022-08-11T22:32:38.146Z,1.38
2022-08-11T22:35:28.677Z,1.30
2022-08-11T22:38:16.177Z,0.93
2022-08-11T22:41:02.095Z,1.48
2022-08-11T22:43:47.833Z,1.45
2022-08-11T22:46:35.326Z,1.30
2022-08-11T22:49:21.135Z,1.30
2022-08-11T22:52:08.053Z,1.50
2022-08-11T22:54:53.995Z,1.60
2022-08-11T22:57:40.768Z,1.33
2022-08-11T23:00:46.951Z,1.13
2022-08-11T23:03:37.161Z,1.52
2022-08-11T23:06:25.332Z,1.42
2022-08-11T23:09:12.186Z,1.58
2022-08-11T23:12:06.846Z,1.20
2022-08-11T23:14:57.295Z,1.60
2022-08-11T23:17:42.784Z,2.47
2022-08-11T23:20:39.837Z,1.63
2022-08-11T23:23:27.890Z,1.88
2022-08-11T23:26:14.871Z,2.00
2022-08-11T23:29:02.500Z,1.83
2022-08-11T23:31:53.434Z,1.70
2022-08-11T23:35:37.099Z,1.83
2022-08-11T23:37:48.112Z,1.70
2022-08-11T23:40:33.691Z,1.67
2022-08-11T23:43:19.825Z,1.88
2022-08-11T23:46:05.305Z,2.65
2022-08-11T23:48:51.230Z,1.70
2022-08-11T23:51:40.464Z,1.85
2022-08-11T23:54:27.706Z,1.42
2022-08-11T23:57:14.450Z,2.17
